sensor_id;sensor_type;location;lat;lon;timestamp;temperature;humidity
2409;DHT22;8463;48.094;7.970;2022-10-30T00:01:52;15.00;27.10
2409;DHT22;8463;48.094;7.970;2022-10-30T00:04:17;15.00;27.00
2409;DHT22;8463;48.094;7.970;2022-10-30T00:06:43;14.90;27.20
2409;DHT22;8463;48.094;7.970;2022-10-30T00:09:09;14.90;27.40
2409;DHT22;8463;48.094;7.970;2022-10-30T00:11:35;14.90;27.00
2409;DHT22;8463;48.094;7.970;2022-10-30T00:14:00;14.90;26.70
2409;DHT22;8463;48.094;7.970;2022-10-30T00:16:26;14.90;27.30
2409;DHT22;8463;48.094;7.970;2022-10-30T00:18:52;14.80;27.50
2409;DHT22;8463;48.094;7.970;2022-10-30T00:21:18;14.80;28.10
2409;DHT22;8463;48.094;7.970;2022-10-30T00:23:46;14.70;28.00
2409;DHT22;8463;48.094;7.970;2022-10-30T00:26:12;14.70;27.50
2409;DHT22;8463;48.094;7.970;2022-10-30T00:28:38;14.70;27.90
2409;DHT22;8463;48.094;7.970;2022-10-30T00:31:04;14.80;27.80
2409;DHT22;8463;48.094;7.970;2022-10-30T00:33:30;14.80;27.90
2409;DHT22;8463;48.094;7.970;2022-10-30T00:35:56;14.70;27.80
2409;DHT22;8463;48.094;7.970;2022-10-30T00:38:21;14.70;28.00
2409;DHT22;8463;48.094;7.970;2022-10-30T00:40:47;14.70;27.60
2409;DHT22;8463;48.094;7.970;2022-10-30T00:43:34;14.70;27.70
2409;DHT22;8463;48.094;7.970;2022-10-30T00:48:38;14.70;27.50
2409;DHT22;8463;48.094;7.970;2022-10-30T00:51:07;14.60;27.70
2409;DHT22;8463;48.094;7.970;2022-10-30T00:53:35;14.60;28.10
2409;DHT22;8463;48.094;7.970;2022-10-30T00:56:05;14.60;28.10
2409;DHT22;8463;48.094;7.970;2022-10-30T00:58:35;14.60;28.10
2409;DHT22;8463;48.094;7.970;2022-10-30T01:01:06;14.60;28.00
2409;DHT22;8463;48.094;7.970;2022-10-30T01:03:34;14.60;28.00
2409;DHT22;8463;48.094;7.970;2022-10-30T01:06:04;14.50;27.80
2409;DHT22;8463;48.094;7.970;2022-10-30T01:08:31;14.60;28.30
2409;DHT22;8463;48.094;7.970;2022-10-30T01:10:59;14.50;28.40
2409;DHT22;8463;48.094;7.970;2022-10-30T01:13:27;14.50;28.50
2409;DHT22;8463;48.094;7.970;2022-10-30T01:24:33;14.40;28.30
2409;DHT22;8463;48.094;7.970;2022-10-30T01:27:08;14.40;28.00
2409;DHT22;8463;48.094;7.970;2022-10-30T01:30:27;14.40;28.10
2409;DHT22;8463;48.094;7.970;2022-10-30T01:33:22;14.50;28.20
2409;DHT22;8463;48.094;7.970;2022-10-30T01:36:00;14.40;28.40
2409;DHT22;8463;48.094;7.970;2022-10-30T01:40:55;14.40;28.90
2409;DHT22;8463;48.094;7.970;2022-10-30T01:43:21;14.40;28.20
2409;DHT22;8463;48.094;7.970;2022-10-30T01:49:05;14.30;28.70
2409;DHT22;8463;48.094;7.970;2022-10-30T01:54:37;14.30;28.00
2409;DHT22;8463;48.094;7.970;2022-10-30T01:57:15;14.30;27.40
2409;DHT22;8463;48.094;7.970;2022-10-30T01:59:53;14.30;26.50
2409;DHT22;8463;48.094;7.970;2022-10-30T02:02:21;14.30;27.00
2409;DHT22;8463;48.094;7.970;2022-10-30T02:04:48;14.20;26.70
2409;DHT22;8463;48.094;7.970;2022-10-30T02:07:14;14.20;26.50
2409;DHT22;8463;48.094;7.970;2022-10-30T02:09:40;14.20;26.40
2409;DHT22;8463;48.094;7.970;2022-10-30T02:12:06;14.20;26.60
2409;DHT22;8463;48.094;7.970;2022-10-30T02:14:37;14.20;27.20
2409;DHT22;8463;48.094;7.970;2022-10-30T02:17:06;14.10;26.90
2409;DHT22;8463;48.094;7.970;2022-10-30T02:19:32;14.10;26.60
2409;DHT22;8463;48.094;7.970;2022-10-30T02:21:58;14.10;26.30
2409;DHT22;8463;48.094;7.970;2022-10-30T02:24:24;14.10;26.60
2409;DHT22;8463;48.094;7.970;2022-10-30T02:26:50;14.10;26.70
2409;DHT22;8463;48.094;7.970;2022-10-30T02:29:15;14.10;26.50
2409;DHT22;8463;48.094;7.970;2022-10-30T02:31:45;14.00;26.40
2409;DHT22;8463;48.094;7.970;2022-10-30T02:34:10;14.00;25.90
2409;DHT22;8463;48.094;7.970;2022-10-30T02:36:36;14.00;25.90
2409;DHT22;8463;48.094;7.970;2022-10-30T02:39:02;14.00;26.20
2409;DHT22;8463;48.094;7.970;2022-10-30T02:41:28;14.00;26.00
2409;DHT22;8463;48.094;7.970;2022-10-30T02:43:53;14.00;25.80
2409;DHT22;8463;48.094;7.970;2022-10-30T02:46:19;14.00;25.80
2409;DHT22;8463;48.094;7.970;2022-10-30T02:48:45;13.90;25.30
2409;DHT22;8463;48.094;7.970;2022-10-30T02:51:11;14.00;25.50
2409;DHT22;8463;48.094;7.970;2022-10-30T02:53:37;14.00;24.90
2409;DHT22;8463;48.094;7.970;2022-10-30T02:56:04;13.90;24.50
2409;DHT22;8463;48.094;7.970;2022-10-30T02:58:30;14.00;24.10
2409;DHT22;8463;48.094;7.970;2022-10-30T03:00:56;14.00;24.00
2409;DHT22;8463;48.094;7.970;2022-10-30T03:03:21;13.90;24.60
2409;DHT22;8463;48.094;7.970;2022-10-30T03:05:47;14.00;24.30
2409;DHT22;8463;48.094;7.970;2022-10-30T03:08:12;14.00;24.40
2409;DHT22;8463;48.094;7.970;2022-10-30T03:10:38;14.00;24.10
2409;DHT22;8463;48.094;7.970;2022-10-30T03:13:04;14.00;24.70
2409;DHT22;8463;48.094;7.970;2022-10-30T03:15:29;14.00;24.70
2409;DHT22;8463;48.094;7.970;2022-10-30T03:17:55;14.00;24.70
2409;DHT22;8463;48.094;7.970;2022-10-30T03:20:20;14.00;24.80
2409;DHT22;8463;48.094;7.970;2022-10-30T03:22:46;14.00;24.70
2409;DHT22;8463;48.094;7.970;2022-10-30T03:25:12;13.90;25.20
2409;DHT22;8463;48.094;7.970;2022-10-30T03:27:37;13.90;25.60
2409;DHT22;8463;48.094;7.970;2022-10-30T03:30:03;13.80;26.30
2409;DHT22;8463;48.094;7.970;2022-10-30T03:32:29;13.70;26.10
2409;DHT22;8463;48.094;7.970;2022-10-30T03:34:54;13.70;26.40
2409;DHT22;8463;48.094;7.970;2022-10-30T03:37:20;13.70;26.10
2409;DHT22;8463;48.094;7.970;2022-10-30T03:39:45;13.70;26.30
2409;DHT22;8463;48.094;7.970;2022-10-30T03:42:11;13.70;25.80
2409;DHT22;8463;48.094;7.970;2022-10-30T03:44:36;13.60;25.30
2409;DHT22;8463;48.094;7.970;2022-10-30T03:47:02;13.60;25.50
2409;DHT22;8463;48.094;7.970;2022-10-30T03:49:27;13.60;25.30
2409;DHT22;8463;48.094;7.970;2022-10-30T03:51:53;13.60;25.20
2409;DHT22;8463;48.094;7.970;2022-10-30T03:54:19;13.70;25.10
2409;DHT22;8463;48.094;7.970;2022-10-30T03:56:44;13.70;24.70
2409;DHT22;8463;48.094;7.970;2022-10-30T03:59:10;13.70;24.10
2409;DHT22;8463;48.094;7.970;2022-10-30T04:01:37;13.60;23.70
2409;DHT22;8463;48.094;7.970;2022-10-30T04:04:02;13.60;23.70
2409;DHT22;8463;48.094;7.970;2022-10-30T04:06:28;13.60;23.80
2409;DHT22;8463;48.094;7.970;2022-10-30T04:08:54;13.60;23.70
2409;DHT22;8463;48.094;7.970;2022-10-30T04:11:20;13.60;23.70
2409;DHT22;8463;48.094;7.970;2022-10-30T04:13:45;13.60;23.80
2409;DHT22;8463;48.094;7.970;2022-10-30T04:16:11;13.60;23.50
2409;DHT22;8463;48.094;7.970;2022-10-30T04:18:37;13.60;23.50
2409;DHT22;8463;48.094;7.970;2022-10-30T04:21:02;13.60;22.70
2409;DHT22;8463;48.094;7.970;2022-10-30T04:23:28;13.60;22.60
2409;DHT22;8463;48.094;7.970;2022-10-30T04:25:54;13.60;22.60
2409;DHT22;8463;48.094;7.970;2022-10-30T04:28:19;13.60;22.80
2409;DHT22;8463;48.094;7.970;2022-10-30T04:30:45;13.60;23.10
2409;DHT22;8463;48.094;7.970;2022-10-30T04:33:12;13.60;22.60
2409;DHT22;8463;48.094;7.970;2022-10-30T04:35:39;13.60;22.50
2409;DHT22;8463;48.094;7.970;2022-10-30T04:38:07;13.60;22.60
2409;DHT22;8463;48.094;7.970;2022-10-30T04:40:36;13.60;22.60
2409;DHT22;8463;48.094;7.970;2022-10-30T04:43:03;13.60;22.50
2409;DHT22;8463;48.094;7.970;2022-10-30T04:45:29;13.60;22.30
2409;DHT22;8463;48.094;7.970;2022-10-30T04:48:02;13.60;22.30
2409;DHT22;8463;48.094;7.970;2022-10-30T04:50:29;13.60;21.90
2409;DHT22;8463;48.094;7.970;2022-10-30T04:53:06;13.60;22.00
2409;DHT22;8463;48.094;7.970;2022-10-30T04:55:33;13.50;21.70
2409;DHT22;8463;48.094;7.970;2022-10-30T04:58:00;13.50;22.20
2409;DHT22;8463;48.094;7.970;2022-10-30T05:00:27;13.50;22.20
2409;DHT22;8463;48.094;7.970;2022-10-30T05:02:53;13.50;22.20
2409;DHT22;8463;48.094;7.970;2022-10-30T05:05:19;13.50;21.40
2409;DHT22;8463;48.094;7.970;2022-10-30T05:07:45;13.50;21.20
2409;DHT22;8463;48.094;7.970;2022-10-30T05:10:12;13.50;21.30
2409;DHT22;8463;48.094;7.970;2022-10-30T05:12:42;13.50;21.30
2409;DHT22;8463;48.094;7.970;2022-10-30T05:15:09;13.50;22.00
2409;DHT22;8463;48.094;7.970;2022-10-30T05:17:34;13.50;21.60
2409;DHT22;8463;48.094;7.970;2022-10-30T05:20:00;13.50;21.30
2409;DHT22;8463;48.094;7.970;2022-10-30T05:22:25;13.50;20.70
2409;DHT22;8463;48.094;7.970;2022-10-30T05:24:51;13.50;20.70
2409;DHT22;8463;48.094;7.970;2022-10-30T05:27:17;13.50;20.70
2409;DHT22;8463;48.094;7.970;2022-10-30T05:29:42;13.50;20.80
2409;DHT22;8463;48.094;7.970;2022-10-30T05:32:08;13.50;20.70
2409;DHT22;8463;48.094;7.970;2022-10-30T05:34:33;13.50;20.80
2409;DHT22;8463;48.094;7.970;2022-10-30T05:36:59;13.50;20.70
2409;DHT22;8463;48.094;7.970;2022-10-30T05:39:26;13.50;20.70
2409;DHT22;8463;48.094;7.970;2022-10-30T05:41:51;13.50;20.70
2409;DHT22;8463;48.094;7.970;2022-10-30T05:44:17;13.50;20.70
2409;DHT22;8463;48.094;7.970;2022-10-30T05:46:42;13.50;21.40
2409;DHT22;8463;48.094;7.970;2022-10-30T05:49:08;13.50;21.30
2409;DHT22;8463;48.094;7.970;2022-10-30T05:51:34;13.50;21.20
2409;DHT22;8463;48.094;7.970;2022-10-30T05:53:59;13.40;22.00
2409;DHT22;8463;48.094;7.970;2022-10-30T05:56:25;13.40;21.90
2409;DHT22;8463;48.094;7.970;2022-10-30T05:58:50;13.40;22.30
2409;DHT22;8463;48.094;7.970;2022-10-30T06:01:16;13.20;22.30
2409;DHT22;8463;48.094;7.970;2022-10-30T06:03:42;13.20;22.80
2409;DHT22;8463;48.094;7.970;2022-10-30T06:06:08;13.20;22.70
2409;DHT22;8463;48.094;7.970;2022-10-30T06:08:34;13.20;22.80
2409;DHT22;8463;48.094;7.970;2022-10-30T06:10:59;13.20;23.00
2409;DHT22;8463;48.094;7.970;2022-10-30T06:13:25;13.20;23.10
2409;DHT22;8463;48.094;7.970;2022-10-30T06:15:53;13.20;22.90
2409;DHT22;8463;48.094;7.970;2022-10-30T06:18:19;13.20;22.90
2409;DHT22;8463;48.094;7.970;2022-10-30T06:20:45;13.20;23.10
2409;DHT22;8463;48.094;7.970;2022-10-30T06:23:10;13.20;23.20
2409;DHT22;8463;48.094;7.970;2022-10-30T06:25:36;13.20;23.10
2409;DHT22;8463;48.094;7.970;2022-10-30T06:28:02;13.20;22.90
2409;DHT22;8463;48.094;7.970;2022-10-30T06:30:28;13.20;23.00
2409;DHT22;8463;48.094;7.970;2022-10-30T06:33:01;13.20;23.20
2409;DHT22;8463;48.094;7.970;2022-10-30T06:35:28;13.20;23.20
2409;DHT22;8463;48.094;7.970;2022-10-30T06:37:55;13.30;34.60
2409;DHT22;8463;48.094;7.970;2022-10-30T06:40:24;13.70;44.50
2409;DHT22;8463;48.094;7.970;2022-10-30T06:42:51;13.90;43.40
2409;DHT22;8463;48.094;7.970;2022-10-30T06:45:19;16.30;38.10
2409;DHT22;8463;48.094;7.970;2022-10-30T06:47:45;14.30;35.10
2409;DHT22;8463;48.094;7.970;2022-10-30T06:50:15;14.50;29.50
2409;DHT22;8463;48.094;7.970;2022-10-30T06:52:41;14.00;21.30
2409;DHT22;8463;48.094;7.970;2022-10-30T06:55:08;13.90;22.40
2409;DHT22;8463;48.094;7.970;2022-10-30T06:57:34;13.80;22.80
2409;DHT22;8463;48.094;7.970;2022-10-30T06:59:59;13.60;23.10
2409;DHT22;8463;48.094;7.970;2022-10-30T07:02:25;13.60;23.80
2409;DHT22;8463;48.094;7.970;2022-10-30T07:04:51;13.50;24.50
2409;DHT22;8463;48.094;7.970;2022-10-30T07:07:16;13.60;24.80
2409;DHT22;8463;48.094;7.970;2022-10-30T07:09:42;13.50;24.50
2409;DHT22;8463;48.094;7.970;2022-10-30T07:12:08;13.40;24.80
2409;DHT22;8463;48.094;7.970;2022-10-30T07:14:34;13.50;24.30
2409;DHT22;8463;48.094;7.970;2022-10-30T07:17:00;13.50;24.50
2409;DHT22;8463;48.094;7.970;2022-10-30T07:19:26;13.60;23.90
2409;DHT22;8463;48.094;7.970;2022-10-30T07:21:51;13.50;23.20
2409;DHT22;8463;48.094;7.970;2022-10-30T07:24:17;13.60;22.60
2409;DHT22;8463;48.094;7.970;2022-10-30T07:26:42;13.60;22.40
2409;DHT22;8463;48.094;7.970;2022-10-30T07:29:08;13.80;22.40
2409;DHT22;8463;48.094;7.970;2022-10-30T07:31:34;13.70;22.00
2409;DHT22;8463;48.094;7.970;2022-10-30T07:33:59;13.70;22.30
2409;DHT22;8463;48.094;7.970;2022-10-30T07:36:25;13.70;23.30
2409;DHT22;8463;48.094;7.970;2022-10-30T07:38:51;13.80;22.80
2409;DHT22;8463;48.094;7.970;2022-10-30T07:41:18;13.80;23.10
2409;DHT22;8463;48.094;7.970;2022-10-30T07:43:44;13.90;23.20
2409;DHT22;8463;48.094;7.970;2022-10-30T07:46:10;13.90;22.40
2409;DHT22;8463;48.094;7.970;2022-10-30T07:48:36;14.00;22.10
2409;DHT22;8463;48.094;7.970;2022-10-30T07:51:02;14.10;21.80
2409;DHT22;8463;48.094;7.970;2022-10-30T07:53:27;14.20;21.70
2409;DHT22;8463;48.094;7.970;2022-10-30T07:55:54;14.30;22.30
2409;DHT22;8463;48.094;7.970;2022-10-30T07:58:20;14.60;21.60
2409;DHT22;8463;48.094;7.970;2022-10-30T08:00:45;14.80;19.60
2409;DHT22;8463;48.094;7.970;2022-10-30T08:03:12;15.00;18.70
2409;DHT22;8463;48.094;7.970;2022-10-30T08:05:38;15.10;18.10
2409;DHT22;8463;48.094;7.970;2022-10-30T08:08:04;15.30;18.30
2409;DHT22;8463;48.094;7.970;2022-10-30T08:10:29;15.40;17.70
2409;DHT22;8463;48.094;7.970;2022-10-30T08:12:55;15.50;16.70
2409;DHT22;8463;48.094;7.970;2022-10-30T08:15:21;15.70;15.80
2409;DHT22;8463;48.094;7.970;2022-10-30T08:17:48;15.70;16.00
2409;DHT22;8463;48.094;7.970;2022-10-30T08:20:17;15.80;15.50
2409;DHT22;8463;48.094;7.970;2022-10-30T08:22:47;15.80;15.20
2409;DHT22;8463;48.094;7.970;2022-10-30T08:25:14;15.90;15.40
2409;DHT22;8463;48.094;7.970;2022-10-30T08:28:01;16.00;14.90
2409;DHT22;8463;48.094;7.970;2022-10-30T08:30:30;16.10;14.90
2409;DHT22;8463;48.094;7.970;2022-10-30T08:32:57;16.20;14.80
2409;DHT22;8463;48.094;7.970;2022-10-30T08:35:23;16.30;14.10
2409;DHT22;8463;48.094;7.970;2022-10-30T08:37:49;16.50;13.80
2409;DHT22;8463;48.094;7.970;2022-10-30T08:40:18;16.60;14.20
2409;DHT22;8463;48.094;7.970;2022-10-30T08:42:50;16.70;13.60
2409;DHT22;8463;48.094;7.970;2022-10-30T08:45:16;16.80;12.80
2409;DHT22;8463;48.094;7.970;2022-10-30T08:47:42;16.90;13.70
2409;DHT22;8463;48.094;7.970;2022-10-30T08:50:07;17.10;14.20
2409;DHT22;8463;48.094;7.970;2022-10-30T08:52:33;17.30;14.70
2409;DHT22;8463;48.094;7.970;2022-10-30T08:54:59;17.60;24.90
2409;DHT22;8463;48.094;7.970;2022-10-30T08:57:25;17.90;22.60
2409;DHT22;8463;48.094;7.970;2022-10-30T08:59:51;18.20;15.20
2409;DHT22;8463;48.094;7.970;2022-10-30T09:04:43;18.60;13.80
2409;DHT22;8463;48.094;7.970;2022-10-30T09:07:39;18.80;12.40
2409;DHT22;8463;48.094;7.970;2022-10-30T09:10:05;19.00;11.60
2409;DHT22;8463;48.094;7.970;2022-10-30T09:12:30;19.20;10.50
2409;DHT22;8463;48.094;7.970;2022-10-30T09:14:56;19.40;7.50
2409;DHT22;8463;48.094;7.970;2022-10-30T09:17:22;19.60;7.70
2409;DHT22;8463;48.094;7.970;2022-10-30T09:19:47;19.80;6.80
2409;DHT22;8463;48.094;7.970;2022-10-30T09:22:13;20.00;6.60
2409;DHT22;8463;48.094;7.970;2022-10-30T09:24:39;20.10;5.00
2409;DHT22;8463;48.094;7.970;2022-10-30T09:27:05;20.20;4.90
2409;DHT22;8463;48.094;7.970;2022-10-30T09:29:31;20.20;2.20
2409;DHT22;8463;48.094;7.970;2022-10-30T09:31:57;20.20;4.50
2409;DHT22;8463;48.094;7.970;2022-10-30T09:34:23;20.30;3.60
2409;DHT22;8463;48.094;7.970;2022-10-30T09:36:48;20.50;4.60
2409;DHT22;8463;48.094;7.970;2022-10-30T09:39:14;20.70;3.90
2409;DHT22;8463;48.094;7.970;2022-10-30T09:53:06;20.30;4.00
2409;DHT22;8463;48.094;7.970;2022-10-30T09:58:37;19.90;5.00
2409;DHT22;8463;48.094;7.970;2022-10-30T10:03:59;19.80;8.80
2409;DHT22;8463;48.094;7.970;2022-10-30T10:06:26;19.60;8.60
2409;DHT22;8463;48.094;7.970;2022-10-30T10:09:01;19.40;9.40
2409;DHT22;8463;48.094;7.970;2022-10-30T10:11:31;19.30;9.40
2409;DHT22;8463;48.094;7.970;2022-10-30T10:14:11;19.40;9.40
2409;DHT22;8463;48.094;7.970;2022-10-30T10:16:39;19.50;10.30
2409;DHT22;8463;48.094;7.970;2022-10-30T10:21:45;19.90;9.10
2409;DHT22;8463;48.094;7.970;2022-10-30T10:24:33;19.90;9.90
2409;DHT22;8463;48.094;7.970;2022-10-30T10:45:59;20.20;9.40
2409;DHT22;8463;48.094;7.970;2022-10-30T10:51:20;20.20;9.60
2409;DHT22;8463;48.094;7.970;2022-10-30T10:53:59;20.10;10.60
2409;DHT22;8463;48.094;7.970;2022-10-30T10:56:34;20.10;10.80
2409;DHT22;8463;48.094;7.970;2022-10-30T10:59:13;20.10;12.00
2409;DHT22;8463;48.094;7.970;2022-10-30T11:01:43;20.10;12.80
2409;DHT22;8463;48.094;7.970;2022-10-30T11:06:54;20.10;13.40
2409;DHT22;8463;48.094;7.970;2022-10-30T11:09:22;20.00;14.80
2409;DHT22;8463;48.094;7.970;2022-10-30T11:11:52;20.00;14.40
2409;DHT22;8463;48.094;7.970;2022-10-30T11:14:20;20.10;14.90
2409;DHT22;8463;48.094;7.970;2022-10-30T11:19:33;20.40;13.20
2409;DHT22;8463;48.094;7.970;2022-10-30T11:22:00;20.60;12.20
2409;DHT22;8463;48.094;7.970;2022-10-30T11:24:33;20.60;11.80
2409;DHT22;8463;48.094;7.970;2022-10-30T11:27:28;20.50;13.20
2409;DHT22;8463;48.094;7.970;2022-10-30T11:29:59;20.60;12.40
2409;DHT22;8463;48.094;7.970;2022-10-30T11:32:27;20.70;13.50
2409;DHT22;8463;48.094;7.970;2022-10-30T11:37:34;21.00;13.20
2409;DHT22;8463;48.094;7.970;2022-10-30T11:40:19;21.00;12.90
2409;DHT22;8463;48.094;7.970;2022-10-30T11:43:03;21.00;12.00
2409;DHT22;8463;48.094;7.970;2022-10-30T11:45:36;20.90;12.60
2409;DHT22;8463;48.094;7.970;2022-10-30T11:48:10;20.90;10.60
2409;DHT22;8463;48.094;7.970;2022-10-30T11:50:47;21.00;13.20
2409;DHT22;8463;48.094;7.970;2022-10-30T11:53:34;21.10;14.30
2409;DHT22;8463;48.094;7.970;2022-10-30T11:56:12;21.30;11.80
2409;DHT22;8463;48.094;7.970;2022-10-30T11:58:45;21.30;11.50
2409;DHT22;8463;48.094;7.970;2022-10-30T12:01:25;21.20;11.30
2409;DHT22;8463;48.094;7.970;2022-10-30T12:03:53;21.20;10.80
2409;DHT22;8463;48.094;7.970;2022-10-30T12:08:57;21.10;12.80
2409;DHT22;8463;48.094;7.970;2022-10-30T12:11:30;21.20;13.40
2409;DHT22;8463;48.094;7.970;2022-10-30T12:13:56;21.30;13.40
2409;DHT22;8463;48.094;7.970;2022-10-30T12:16:22;21.40;11.80
2409;DHT22;8463;48.094;7.970;2022-10-30T12:19:07;21.40;10.90
2409;DHT22;8463;48.094;7.970;2022-10-30T12:21:47;21.50;6.00
2409;DHT22;8463;48.094;7.970;2022-10-30T12:24:31;21.70;7.10
2409;DHT22;8463;48.094;7.970;2022-10-30T12:27:01;21.80;5.30
2409;DHT22;8463;48.094;7.970;2022-10-30T12:32:13;21.90;5.70
2409;DHT22;8463;48.094;7.970;2022-10-30T12:34:42;22.00;7.10
2409;DHT22;8463;48.094;7.970;2022-10-30T12:37:16;22.10;6.50
2409;DHT22;8463;48.094;7.970;2022-10-30T12:39:52;22.20;6.50
2409;DHT22;8463;48.094;7.970;2022-10-30T12:42:19;22.30;5.70
2409;DHT22;8463;48.094;7.970;2022-10-30T12:47:52;22.50;6.00
2409;DHT22;8463;48.094;7.970;2022-10-30T12:50:31;22.60;5.80
2409;DHT22;8463;48.094;7.970;2022-10-30T12:53:34;22.80;5.70
2409;DHT22;8463;48.094;7.970;2022-10-30T12:56:18;23.10;5.80
2409;DHT22;8463;48.094;7.970;2022-10-30T12:58:49;23.30;5.60
2409;DHT22;8463;48.094;7.970;2022-10-30T13:01:24;23.50;5.20
2409;DHT22;8463;48.094;7.970;2022-10-30T13:06:29;23.70;5.90
2409;DHT22;8463;48.094;7.970;2022-10-30T13:14:28;23.90;4.30
2409;DHT22;8463;48.094;7.970;2022-10-30T13:16:55;23.90;3.70
2409;DHT22;8463;48.094;7.970;2022-10-30T13:19:22;23.90;2.70
2409;DHT22;8463;48.094;7.970;2022-10-30T13:32:22;23.80;3.50
2409;DHT22;8463;48.094;7.970;2022-10-30T13:43:45;24.00;4.70
2409;DHT22;8463;48.094;7.970;2022-10-30T13:48:49;24.10;4.80
2409;DHT22;8463;48.094;7.970;2022-10-30T13:54:34;24.10;4.80
2409;DHT22;8463;48.094;7.970;2022-10-30T13:57:59;24.20;5.50
2409;DHT22;8463;48.094;7.970;2022-10-30T14:00:10;24.40;5.80
2409;DHT22;8463;48.094;7.970;2022-10-30T14:03:04;24.50;5.80
2409;DHT22;8463;48.094;7.970;2022-10-30T14:05:41;24.60;6.00
2409;DHT22;8463;48.094;7.970;2022-10-30T14:08:23;24.70;6.10
2409;DHT22;8463;48.094;7.970;2022-10-30T14:10:53;24.80;5.30
2409;DHT22;8463;48.094;7.970;2022-10-30T14:13:44;24.70;3.80
2409;DHT22;8463;48.094;7.970;2022-10-30T14:19:14;24.60;2.80
2409;DHT22;8463;48.094;7.970;2022-10-30T14:24:20;24.30;2.00
2409;DHT22;8463;48.094;7.970;2022-10-30T14:29:42;24.20;3.60
2409;DHT22;8463;48.094;7.970;2022-10-30T14:37:16;24.00;4.70
2409;DHT22;8463;48.094;7.970;2022-10-30T14:39:47;23.90;5.20
2409;DHT22;8463;48.094;7.970;2022-10-30T14:48:17;23.40;9.40
2409;DHT22;8463;48.094;7.970;2022-10-30T14:51:17;23.10;8.80
2409;DHT22;8463;48.094;7.970;2022-10-30T14:54:01;22.90;9.30
2409;DHT22;8463;48.094;7.970;2022-10-30T15:07:42;22.20;16.40
2409;DHT22;8463;48.094;7.970;2022-10-30T15:10:24;22.10;16.20
2409;DHT22;8463;48.094;7.970;2022-10-30T15:13:08;22.10;16.30
2409;DHT22;8463;48.094;7.970;2022-10-30T15:15:37;22.00;16.20
2409;DHT22;8463;48.094;7.970;2022-10-30T15:18:09;21.90;17.00
2409;DHT22;8463;48.094;7.970;2022-10-30T15:20:37;21.60;14.30
2409;DHT22;8463;48.094;7.970;2022-10-30T15:23:11;21.20;11.60
2409;DHT22;8463;48.094;7.970;2022-10-30T15:25:49;20.90;11.30
2409;DHT22;8463;48.094;7.970;2022-10-30T15:28:18;20.70;9.30
2409;DHT22;8463;48.094;7.970;2022-10-30T15:33:30;20.60;10.50
2409;DHT22;8463;48.094;7.970;2022-10-30T15:35:57;20.50;10.70
2409;DHT22;8463;48.094;7.970;2022-10-30T15:38:23;20.40;12.10
2409;DHT22;8463;48.094;7.970;2022-10-30T15:40:49;20.40;13.60
2409;DHT22;8463;48.094;7.970;2022-10-30T15:43:16;20.40;19.80
2409;DHT22;8463;48.094;7.970;2022-10-30T15:45:46;20.40;20.20
2409;DHT22;8463;48.094;7.970;2022-10-30T15:48:33;20.30;20.00
2409;DHT22;8463;48.094;7.970;2022-10-30T15:53:47;20.30;22.00
2409;DHT22;8463;48.094;7.970;2022-10-30T15:56:18;20.20;22.40
2409;DHT22;8463;48.094;7.970;2022-10-30T15:58:57;20.10;22.90
2409;DHT22;8463;48.094;7.970;2022-10-30T16:01:26;20.10;23.00
2409;DHT22;8463;48.094;7.970;2022-10-30T16:03:53;20.00;24.10
2409;DHT22;8463;48.094;7.970;2022-10-30T16:06:19;20.00;23.60
2409;DHT22;8463;48.094;7.970;2022-10-30T16:08:47;19.80;22.70
2409;DHT22;8463;48.094;7.970;2022-10-30T16:11:14;19.60;23.20
2409;DHT22;8463;48.094;7.970;2022-10-30T16:13:40;19.50;23.50
2409;DHT22;8463;48.094;7.970;2022-10-30T16:16:11;19.40;24.00
2409;DHT22;8463;48.094;7.970;2022-10-30T16:18:38;19.40;24.20
2409;DHT22;8463;48.094;7.970;2022-10-30T16:21:06;19.30;24.20
2409;DHT22;8463;48.094;7.970;2022-10-30T16:23:37;19.20;24.50
2409;DHT22;8463;48.094;7.970;2022-10-30T16:26:04;19.20;25.00
2409;DHT22;8463;48.094;7.970;2022-10-30T16:28:33;19.20;25.00
2409;DHT22;8463;48.094;7.970;2022-10-30T16:31:07;19.10;24.00
2409;DHT22;8463;48.094;7.970;2022-10-30T16:33:39;18.90;24.60
2409;DHT22;8463;48.094;7.970;2022-10-30T16:36:06;18.80;24.60
2409;DHT22;8463;48.094;7.970;2022-10-30T16:38:36;18.70;24.60
2409;DHT22;8463;48.094;7.970;2022-10-30T16:41:06;18.70;25.30
2409;DHT22;8463;48.094;7.970;2022-10-30T16:43:39;18.60;25.20
2409;DHT22;8463;48.094;7.970;2022-10-30T16:48:49;18.50;24.50
2409;DHT22;8463;48.094;7.970;2022-10-30T16:51:19;18.50;25.40
2409;DHT22;8463;48.094;7.970;2022-10-30T16:53:50;18.50;27.10
2409;DHT22;8463;48.094;7.970;2022-10-30T16:56:30;18.50;26.00
2409;DHT22;8463;48.094;7.970;2022-10-30T16:59:12;18.40;25.20
2409;DHT22;8463;48.094;7.970;2022-10-30T17:01:39;18.30;25.40
2409;DHT22;8463;48.094;7.970;2022-10-30T17:04:05;18.10;24.20
2409;DHT22;8463;48.094;7.970;2022-10-30T17:06:42;18.00;25.30
2409;DHT22;8463;48.094;7.970;2022-10-30T17:09:23;17.90;25.40
2409;DHT22;8463;48.094;7.970;2022-10-30T17:17:27;18.30;28.10
2409;DHT22;8463;48.094;7.970;2022-10-30T17:22:44;18.10;24.70
2409;DHT22;8463;48.094;7.970;2022-10-30T17:25:35;18.00;25.10
2409;DHT22;8463;48.094;7.970;2022-10-30T17:28:01;17.80;25.30
2409;DHT22;8463;48.094;7.970;2022-10-30T17:32:56;17.50;26.10
2409;DHT22;8463;48.094;7.970;2022-10-30T17:35:22;17.40;26.20
2409;DHT22;8463;48.094;7.970;2022-10-30T17:37:47;17.40;26.80
2409;DHT22;8463;48.094;7.970;2022-10-30T17:40:13;17.40;26.80
2409;DHT22;8463;48.094;7.970;2022-10-30T17:42:40;17.30;26.80
2409;DHT22;8463;48.094;7.970;2022-10-30T17:45:08;17.30;27.40
2409;DHT22;8463;48.094;7.970;2022-10-30T17:47:35;17.10;27.90
2409;DHT22;8463;48.094;7.970;2022-10-30T17:50:02;17.10;27.60
2409;DHT22;8463;48.094;7.970;2022-10-30T17:52:30;17.10;28.00
2409;DHT22;8463;48.094;7.970;2022-10-30T17:54:56;17.10;27.90
2409;DHT22;8463;48.094;7.970;2022-10-30T17:57:22;17.10;28.00
2409;DHT22;8463;48.094;7.970;2022-10-30T17:59:50;17.10;27.50
2409;DHT22;8463;48.094;7.970;2022-10-30T18:02:20;16.90;27.10
2409;DHT22;8463;48.094;7.970;2022-10-30T18:04:47;16.90;27.10
2409;DHT22;8463;48.094;7.970;2022-10-30T18:07:14;16.80;26.70
2409;DHT22;8463;48.094;7.970;2022-10-30T18:09:41;16.80;26.70
2409;DHT22;8463;48.094;7.970;2022-10-30T18:12:11;16.90;26.30
2409;DHT22;8463;48.094;7.970;2022-10-30T18:14:38;18.40;27.30
2409;DHT22;8463;48.094;7.970;2022-10-30T18:17:04;16.80;26.10
2409;DHT22;8463;48.094;7.970;2022-10-30T18:19:30;16.70;26.60
2409;DHT22;8463;48.094;7.970;2022-10-30T18:21:56;16.70;26.90
2409;DHT22;8463;48.094;7.970;2022-10-30T18:24:22;16.60;27.20
2409;DHT22;8463;48.094;7.970;2022-10-30T18:26:47;16.60;28.00
2409;DHT22;8463;48.094;7.970;2022-10-30T18:29:13;16.60;27.60
2409;DHT22;8463;48.094;7.970;2022-10-30T18:31:39;16.60;28.20
2409;DHT22;8463;48.094;7.970;2022-10-30T18:34:16;16.60;28.20
2409;DHT22;8463;48.094;7.970;2022-10-30T18:36:43;16.60;28.00
2409;DHT22;8463;48.094;7.970;2022-10-30T18:39:08;16.60;27.60
2409;DHT22;8463;48.094;7.970;2022-10-30T18:41:37;16.50;27.30
2409;DHT22;8463;48.094;7.970;2022-10-30T18:44:03;16.50;26.80
2409;DHT22;8463;48.094;7.970;2022-10-30T18:46:30;16.30;26.80
2409;DHT22;8463;48.094;7.970;2022-10-30T18:48:57;16.30;26.60
2409;DHT22;8463;48.094;7.970;2022-10-30T18:51:25;16.30;26.60
2409;DHT22;8463;48.094;7.970;2022-10-30T18:53:51;16.30;25.40
2409;DHT22;8463;48.094;7.970;2022-10-30T18:56:22;16.20;25.10
2409;DHT22;8463;48.094;7.970;2022-10-30T18:58:48;16.20;25.30
2409;DHT22;8463;48.094;7.970;2022-10-30T19:01:14;16.20;25.50